sensor_id;sensor_type;location;lat;lon;timestamp;P1;durP1;ratioP1;P2;durP2;ratioP2
45466;SDS011;31212;49.734;8.490;2023-06-10T00:00:00;8.60;;;6.15;;
45466;SDS011;31212;49.734;8.490;2023-06-10T00:02:37;8.05;;;5.03;;
45466;SDS011;31212;49.734;8.490;2023-06-10T00:05:04;8.18;;;5.57;;
45466;SDS011;31212;49.734;8.490;2023-06-10T00:07:31;10.10;;;5.28;;
45466;SDS011;31212;49.734;8.490;2023-06-10T00:09:59;9.27;;;5.45;;
45466;SDS011;31212;49.734;8.490;2023-06-10T00:12:29;9.15;;;5.45;;
45466;SDS011;31212;49.734;8.490;2023-06-10T00:14:56;6.70;;;5.10;;
45466;SDS011;31212;49.734;8.490;2023-06-10T00:17:22;8.23;;;5.60;;
45466;SDS011;31212;49.734;8.490;2023-06-10T00:19:50;7.40;;;4.88;;
45466;SDS011;31212;49.734;8.490;2023-06-10T00:22:18;6.78;;;5.07;;
45466;SDS011;31212;49.734;8.490;2023-06-10T00:24:44;9.77;;;6.07;;
45466;SDS011;31212;49.734;8.490;2023-06-10T00:27:12;8.45;;;5.53;;
45466;SDS011;31212;49.734;8.490;2023-06-10T00:29:38;7.10;;;5.05;;
45466;SDS011;31212;49.734;8.490;2023-06-10T00:32:05;7.60;;;5.18;;
45466;SDS011;31212;49.734;8.490;2023-06-10T00:34:33;8.55;;;5.57;;
45466;SDS011;31212;49.734;8.490;2023-06-10T00:37:00;7.57;;;5.18;;
45466;SDS011;31212;49.734;8.490;2023-06-10T00:39:27;8.70;;;5.50;;
45466;SDS011;31212;49.734;8.490;2023-06-10T00:41:54;8.38;;;5.75;;
45466;SDS011;31212;49.734;8.490;2023-06-10T00:44:21;10.43;;;6.20;;
45466;SDS011;31212;49.734;8.490;2023-06-10T00:46:48;9.75;;;5.93;;
45466;SDS011;31212;49.734;8.490;2023-06-10T00:49:16;7.10;;;5.47;;
45466;SDS011;31212;49.734;8.490;2023-06-10T00:51:43;8.27;;;5.80;;
45466;SDS011;31212;49.734;8.490;2023-06-10T00:54:10;8.43;;;6.22;;
45466;SDS011;31212;49.734;8.490;2023-06-10T00:56:40;9.88;;;5.55;;
45466;SDS011;31212;49.734;8.490;2023-06-10T00:59:08;9.05;;;5.75;;
45466;SDS011;31212;49.734;8.490;2023-06-10T01:01:36;8.57;;;6.35;;
45466;SDS011;31212;49.734;8.490;2023-06-10T01:04:04;13.98;;;6.35;;
45466;SDS011;31212;49.734;8.490;2023-06-10T01:06:33;9.48;;;5.57;;
45466;SDS011;31212;49.734;8.490;2023-06-10T01:09:13;10.73;;;6.97;;
45466;SDS011;31212;49.734;8.490;2023-06-10T01:11:47;8.55;;;5.70;;
45466;SDS011;31212;49.734;8.490;2023-06-10T01:14:22;8.88;;;6.47;;
45466;SDS011;31212;49.734;8.490;2023-06-10T01:16:51;10.98;;;5.97;;
45466;SDS011;31212;49.734;8.490;2023-06-10T01:19:20;11.45;;;5.75;;
45466;SDS011;31212;49.734;8.490;2023-06-10T01:21:50;7.80;;;5.30;;
45466;SDS011;31212;49.734;8.490;2023-06-10T01:24:17;9.07;;;5.80;;
45466;SDS011;31212;49.734;8.490;2023-06-10T01:26:44;11.43;;;6.68;;
45466;SDS011;31212;49.734;8.490;2023-06-10T01:29:19;10.38;;;6.25;;
45466;SDS011;31212;49.734;8.490;2023-06-10T01:31:48;9.02;;;6.70;;
45466;SDS011;31212;49.734;8.490;2023-06-10T01:34:19;14.27;;;6.15;;
45466;SDS011;31212;49.734;8.490;2023-06-10T01:36:49;9.05;;;6.50;;
45466;SDS011;31212;49.734;8.490;2023-06-10T01:39:19;8.82;;;6.85;;
45466;SDS011;31212;49.734;8.490;2023-06-10T01:41:49;11.55;;;6.28;;
45466;SDS011;31212;49.734;8.490;2023-06-10T01:44:17;10.73;;;6.28;;
45466;SDS011;31212;49.734;8.490;2023-06-10T01:46:44;9.05;;;6.85;;
45466;SDS011;31212;49.734;8.490;2023-06-10T01:49:11;9.65;;;6.03;;
45466;SDS011;31212;49.734;8.490;2023-06-10T01:51:38;9.32;;;6.45;;
45466;SDS011;31212;49.734;8.490;2023-06-10T01:54:07;8.10;;;5.93;;
45466;SDS011;31212;49.734;8.490;2023-06-10T01:56:34;9.93;;;7.47;;
45466;SDS011;31212;49.734;8.490;2023-06-10T01:59:01;8.82;;;6.28;;
45466;SDS011;31212;49.734;8.490;2023-06-10T02:01:28;8.05;;;6.18;;
45466;SDS011;31212;49.734;8.490;2023-06-10T02:03:55;8.70;;;6.22;;
45466;SDS011;31212;49.734;8.490;2023-06-10T02:06:21;8.13;;;6.25;;
45466;SDS011;31212;49.734;8.490;2023-06-10T02:08:47;9.52;;;6.55;;
45466;SDS011;31212;49.734;8.490;2023-06-10T02:11:15;8.55;;;6.13;;
45466;SDS011;31212;49.734;8.490;2023-06-10T02:13:42;10.10;;;6.18;;
45466;SDS011;31212;49.734;8.490;2023-06-10T02:16:08;9.52;;;6.47;;
45466;SDS011;31212;49.734;8.490;2023-06-10T02:18:37;10.40;;;7.00;;
45466;SDS011;31212;49.734;8.490;2023-06-10T02:21:07;8.20;;;6.47;;
45466;SDS011;31212;49.734;8.490;2023-06-10T02:23:33;13.23;;;6.93;;
45466;SDS011;31212;49.734;8.490;2023-06-10T02:26:03;10.63;;;6.45;;
45466;SDS011;31212;49.734;8.490;2023-06-10T02:28:31;10.75;;;7.28;;
45466;SDS011;31212;49.734;8.490;2023-06-10T02:30:58;9.63;;;6.38;;
45466;SDS011;31212;49.734;8.490;2023-06-10T02:33:25;12.52;;;7.22;;
45466;SDS011;31212;49.734;8.490;2023-06-10T02:35:53;9.93;;;6.40;;
45466;SDS011;31212;49.734;8.490;2023-06-10T02:38:21;10.38;;;6.70;;
45466;SDS011;31212;49.734;8.490;2023-06-10T02:40:48;11.45;;;6.78;;
45466;SDS011;31212;49.734;8.490;2023-06-10T02:43:15;10.40;;;6.55;;
45466;SDS011;31212;49.734;8.490;2023-06-10T02:45:44;12.60;;;6.70;;
45466;SDS011;31212;49.734;8.490;2023-06-10T02:48:12;12.10;;;6.97;;
45466;SDS011;31212;49.734;8.490;2023-06-10T02:50:39;10.43;;;7.22;;
45466;SDS011;31212;49.734;8.490;2023-06-10T02:53:14;7.63;;;6.20;;
45466;SDS011;31212;49.734;8.490;2023-06-10T02:55:45;10.57;;;6.60;;
45466;SDS011;31212;49.734;8.490;2023-06-10T02:58:14;10.02;;;6.70;;
45466;SDS011;31212;49.734;8.490;2023-06-10T03:00:42;9.15;;;6.90;;
45466;SDS011;31212;49.734;8.490;2023-06-10T03:03:11;12.75;;;6.68;;
45466;SDS011;31212;49.734;8.490;2023-06-10T03:05:47;11.75;;;7.07;;
45466;SDS011;31212;49.734;8.490;2023-06-10T03:08:16;11.68;;;6.97;;
45466;SDS011;31212;49.734;8.490;2023-06-10T03:10:44;14.18;;;7.30;;
45466;SDS011;31212;49.734;8.490;2023-06-10T03:13:14;12.15;;;6.78;;
45466;SDS011;31212;49.734;8.490;2023-06-10T03:15:41;11.35;;;7.18;;
45466;SDS011;31212;49.734;8.490;2023-06-10T03:18:15;9.90;;;7.18;;
45466;SDS011;31212;49.734;8.490;2023-06-10T03:20:43;14.32;;;7.72;;
45466;SDS011;31212;49.734;8.490;2023-06-10T03:23:10;9.52;;;6.47;;
45466;SDS011;31212;49.734;8.490;2023-06-10T03:25:37;12.45;;;7.38;;
45466;SDS011;31212;49.734;8.490;2023-06-10T03:28:04;9.15;;;5.85;;
45466;SDS011;31212;49.734;8.490;2023-06-10T03:30:32;11.07;;;7.35;;
45466;SDS011;31212;49.734;8.490;2023-06-10T03:32:59;10.98;;;7.13;;
45466;SDS011;31212;49.734;8.490;2023-06-10T03:35:29;9.95;;;6.72;;
45466;SDS011;31212;49.734;8.490;2023-06-10T03:37:57;10.20;;;7.22;;
45466;SDS011;31212;49.734;8.490;2023-06-10T03:40:24;11.05;;;7.50;;
45466;SDS011;31212;49.734;8.490;2023-06-10T03:42:50;8.95;;;6.15;;
45466;SDS011;31212;49.734;8.490;2023-06-10T03:45:18;10.20;;;6.90;;
45466;SDS011;31212;49.734;8.490;2023-06-10T03:47:46;10.65;;;7.15;;
45466;SDS011;31212;49.734;8.490;2023-06-10T03:50:15;14.98;;;7.53;;
45466;SDS011;31212;49.734;8.490;2023-06-10T03:52:45;11.02;;;7.18;;
45466;SDS011;31212;49.734;8.490;2023-06-10T03:55:13;11.27;;;6.45;;
45466;SDS011;31212;49.734;8.490;2023-06-10T03:57:43;9.10;;;6.95;;
45466;SDS011;31212;49.734;8.490;2023-06-10T04:00:10;12.07;;;7.75;;
45466;SDS011;31212;49.734;8.490;2023-06-10T04:02:41;7.85;;;5.78;;
45466;SDS011;31212;49.734;8.490;2023-06-10T04:05:13;10.55;;;6.35;;
45466;SDS011;31212;49.734;8.490;2023-06-10T04:07:41;15.63;;;7.85;;
45466;SDS011;31212;49.734;8.490;2023-06-10T04:10:10;8.88;;;5.97;;
45466;SDS011;31212;49.734;8.490;2023-06-10T04:12:37;9.60;;;6.45;;
45466;SDS011;31212;49.734;8.490;2023-06-10T04:15:04;12.68;;;7.63;;
45466;SDS011;31212;49.734;8.490;2023-06-10T04:17:32;9.45;;;6.40;;
45466;SDS011;31212;49.734;8.490;2023-06-10T04:19:59;10.65;;;7.07;;
45466;SDS011;31212;49.734;8.490;2023-06-10T04:22:27;10.10;;;6.65;;
45466;SDS011;31212;49.734;8.490;2023-06-10T04:24:53;11.43;;;6.57;;
45466;SDS011;31212;49.734;8.490;2023-06-10T04:27:22;10.02;;;6.75;;
45466;SDS011;31212;49.734;8.490;2023-06-10T04:29:48;8.82;;;6.55;;
45466;SDS011;31212;49.734;8.490;2023-06-10T04:32:15;14.20;;;7.10;;
45466;SDS011;31212;49.734;8.490;2023-06-10T04:34:41;10.57;;;6.90;;
45466;SDS011;31212;49.734;8.490;2023-06-10T04:37:08;8.27;;;6.05;;
45466;SDS011;31212;49.734;8.490;2023-06-10T04:39:34;8.52;;;6.57;;
45466;SDS011;31212;49.734;8.490;2023-06-10T04:42:01;10.65;;;7.13;;
45466;SDS011;31212;49.734;8.490;2023-06-10T04:44:30;14.90;;;8.00;;
45466;SDS011;31212;49.734;8.490;2023-06-10T04:46:56;10.75;;;6.35;;
45466;SDS011;31212;49.734;8.490;2023-06-10T04:49:22;10.13;;;6.00;;
45466;SDS011;31212;49.734;8.490;2023-06-10T04:51:49;11.15;;;6.95;;
45466;SDS011;31212;49.734;8.490;2023-06-10T04:54:16;11.02;;;6.18;;
45466;SDS011;31212;49.734;8.490;2023-06-10T04:56:43;8.95;;;6.07;;
45466;SDS011;31212;49.734;8.490;2023-06-10T04:59:09;7.60;;;5.70;;
45466;SDS011;31212;49.734;8.490;2023-06-10T05:01:37;10.73;;;5.78;;
45466;SDS011;31212;49.734;8.490;2023-06-10T05:04:03;8.27;;;6.07;;
45466;SDS011;31212;49.734;8.490;2023-06-10T05:06:30;13.48;;;5.78;;
45466;SDS011;31212;49.734;8.490;2023-06-10T05:08:56;9.27;;;5.88;;
45466;SDS011;31212;49.734;8.490;2023-06-10T05:11:23;9.43;;;6.03;;
45466;SDS011;31212;49.734;8.490;2023-06-10T05:13:49;10.10;;;6.82;;
45466;SDS011;31212;49.734;8.490;2023-06-10T05:16:16;7.90;;;5.65;;
45466;SDS011;31212;49.734;8.490;2023-06-10T05:18:44;10.15;;;5.68;;
45466;SDS011;31212;49.734;8.490;2023-06-10T05:21:10;10.27;;;6.22;;
45466;SDS011;31212;49.734;8.490;2023-06-10T05:23:37;9.75;;;6.50;;
45466;SDS011;31212;49.734;8.490;2023-06-10T05:26:03;12.00;;;6.13;;
45466;SDS011;31212;49.734;8.490;2023-06-10T05:28:30;8.13;;;5.93;;
45466;SDS011;31212;49.734;8.490;2023-06-10T05:30:57;8.43;;;6.35;;
45466;SDS011;31212;49.734;8.490;2023-06-10T05:33:23;12.18;;;5.85;;
45466;SDS011;31212;49.734;8.490;2023-06-10T05:35:51;10.52;;;5.85;;
45466;SDS011;31212;49.734;8.490;2023-06-10T05:38:17;10.75;;;6.55;;
45466;SDS011;31212;49.734;8.490;2023-06-10T05:40:45;10.70;;;5.65;;
45466;SDS011;31212;49.734;8.490;2023-06-10T05:43:12;9.57;;;5.55;;
45466;SDS011;31212;49.734;8.490;2023-06-10T05:45:39;12.50;;;7.00;;
45466;SDS011;31212;49.734;8.490;2023-06-10T05:48:05;9.90;;;5.68;;
45466;SDS011;31212;49.734;8.490;2023-06-10T05:50:32;10.05;;;5.72;;
45466;SDS011;31212;49.734;8.490;2023-06-10T05:53:04;9.95;;;6.20;;
45466;SDS011;31212;49.734;8.490;2023-06-10T05:55:32;8.75;;;5.60;;
45466;SDS011;31212;49.734;8.490;2023-06-10T05:57:58;10.75;;;5.53;;
45466;SDS011;31212;49.734;8.490;2023-06-10T06:00:25;10.23;;;5.57;;
45466;SDS011;31212;49.734;8.490;2023-06-10T06:02:52;12.15;;;6.45;;
45466;SDS011;31212;49.734;8.490;2023-06-10T06:05:19;9.95;;;6.18;;
45466;SDS011;31212;49.734;8.490;2023-06-10T06:07:45;9.55;;;6.60;;
45466;SDS011;31212;49.734;8.490;2023-06-10T06:10:13;6.78;;;5.50;;
45466;SDS011;31212;49.734;8.490;2023-06-10T06:12:40;7.45;;;5.00;;
45466;SDS011;31212;49.734;8.490;2023-06-10T06:15:06;6.93;;;4.78;;
45466;SDS011;31212;49.734;8.490;2023-06-10T06:17:34;7.28;;;5.70;;
45466;SDS011;31212;49.734;8.490;2023-06-10T06:20:00;6.70;;;5.18;;
45466;SDS011;31212;49.734;8.490;2023-06-10T06:22:27;9.57;;;5.85;;
45466;SDS011;31212;49.734;8.490;2023-06-10T06:24:53;11.13;;;5.65;;
45466;SDS011;31212;49.734;8.490;2023-06-10T06:27:21;8.02;;;4.78;;
45466;SDS011;31212;49.734;8.490;2023-06-10T06:29:48;8.35;;;4.85;;
45466;SDS011;31212;49.734;8.490;2023-06-10T06:32:15;8.60;;;5.40;;
45466;SDS011;31212;49.734;8.490;2023-06-10T06:34:42;7.10;;;5.35;;
45466;SDS011;31212;49.734;8.490;2023-06-10T06:37:08;8.30;;;5.05;;
45466;SDS011;31212;49.734;8.490;2023-06-10T06:39:39;7.45;;;4.63;;
45466;SDS011;31212;49.734;8.490;2023-06-10T06:42:06;6.72;;;5.07;;
45466;SDS011;31212;49.734;8.490;2023-06-10T06:44:50;8.98;;;5.28;;
45466;SDS011;31212;49.734;8.490;2023-06-10T06:47:17;8.43;;;5.60;;
45466;SDS011;31212;49.734;8.490;2023-06-10T06:49:44;6.93;;;4.90;;
45466;SDS011;31212;49.734;8.490;2023-06-10T06:52:11;8.75;;;4.32;;
45466;SDS011;31212;49.734;8.490;2023-06-10T06:54:38;8.40;;;4.50;;
45466;SDS011;31212;49.734;8.490;2023-06-10T06:57:04;7.13;;;5.15;;
45466;SDS011;31212;49.734;8.490;2023-06-10T06:59:32;7.47;;;4.97;;
45466;SDS011;31212;49.734;8.490;2023-06-10T07:02:08;11.40;;;5.28;;
45466;SDS011;31212;49.734;8.490;2023-06-10T07:04:34;7.20;;;4.88;;
45466;SDS011;31212;49.734;8.490;2023-06-10T07:07:01;6.25;;;4.35;;
45466;SDS011;31212;49.734;8.490;2023-06-10T07:09:27;7.10;;;4.47;;
45466;SDS011;31212;49.734;8.490;2023-06-10T07:11:54;8.02;;;5.07;;
45466;SDS011;31212;49.734;8.490;2023-06-10T07:14:21;6.82;;;4.75;;
45466;SDS011;31212;49.734;8.490;2023-06-10T07:16:47;10.18;;;4.70;;
45466;SDS011;31212;49.734;8.490;2023-06-10T07:19:16;7.93;;;4.10;;
45466;SDS011;31212;49.734;8.490;2023-06-10T07:22:22;5.57;;;4.25;;
45466;SDS011;31212;49.734;8.490;2023-06-10T07:24:49;7.53;;;4.60;;
45466;SDS011;31212;49.734;8.490;2023-06-10T07:27:16;8.85;;;3.83;;
45466;SDS011;31212;49.734;8.490;2023-06-10T07:29:43;5.03;;;3.53;;
45466;SDS011;31212;49.734;8.490;2023-06-10T07:32:09;4.40;;;3.35;;
45466;SDS011;31212;49.734;8.490;2023-06-10T07:34:36;5.78;;;4.30;;
45466;SDS011;31212;49.734;8.490;2023-06-10T07:37:02;5.32;;;4.00;;
45466;SDS011;31212;49.734;8.490;2023-06-10T07:39:30;4.65;;;3.72;;
45466;SDS011;31212;49.734;8.490;2023-06-10T07:41:57;6.07;;;3.97;;
45466;SDS011;31212;49.734;8.490;2023-06-10T07:44:24;7.22;;;4.22;;
45466;SDS011;31212;49.734;8.490;2023-06-10T07:46:50;5.40;;;4.07;;
45466;SDS011;31212;49.734;8.490;2023-06-10T07:49:17;4.75;;;3.28;;
45466;SDS011;31212;49.734;8.490;2023-06-10T07:51:43;6.07;;;3.75;;
45466;SDS011;31212;49.734;8.490;2023-06-10T07:54:10;6.43;;;4.30;;
45466;SDS011;31212;49.734;8.490;2023-06-10T07:56:39;4.53;;;3.78;;
45466;SDS011;31212;49.734;8.490;2023-06-10T07:59:05;4.53;;;3.80;;
45466;SDS011;31212;49.734;8.490;2023-06-10T08:01:32;5.82;;;3.60;;
45466;SDS011;31212;49.734;8.490;2023-06-10T08:03:58;5.50;;;3.83;;
45466;SDS011;31212;49.734;8.490;2023-06-10T08:06:25;5.65;;;4.45;;
45466;SDS011;31212;49.734;8.490;2023-06-10T08:08:51;4.30;;;3.35;;
45466;SDS011;31212;49.734;8.490;2023-06-10T08:11:18;5.03;;;3.80;;
45466;SDS011;31212;49.734;8.490;2023-06-10T08:13:47;4.50;;;3.53;;
45466;SDS011;31212;49.734;8.490;2023-06-10T08:16:13;5.55;;;3.50;;
45466;SDS011;31212;49.734;8.490;2023-06-10T08:18:40;4.20;;;3.80;;
45466;SDS011;31212;49.734;8.490;2023-06-10T08:21:06;3.97;;;3.58;;
45466;SDS011;31212;49.734;8.490;2023-06-10T08:23:33;5.47;;;3.80;;
45466;SDS011;31212;49.734;8.490;2023-06-10T08:25:59;6.97;;;3.67;;
45466;SDS011;31212;49.734;8.490;2023-06-10T08:28:26;5.68;;;3.70;;
45466;SDS011;31212;49.734;8.490;2023-06-10T08:30:53;4.25;;;3.53;;
45466;SDS011;31212;49.734;8.490;2023-06-10T08:33:20;4.43;;;3.63;;
45466;SDS011;31212;49.734;8.490;2023-06-10T08:35:46;4.20;;;3.60;;
45466;SDS011;31212;49.734;8.490;2023-06-10T08:38:13;4.07;;;3.30;;
45466;SDS011;31212;49.734;8.490;2023-06-10T08:40:41;4.47;;;3.20;;
45466;SDS011;31212;49.734;8.490;2023-06-10T08:43:08;6.45;;;3.70;;
45466;SDS011;31212;49.734;8.490;2023-06-10T08:45:43;3.97;;;3.35;;
45466;SDS011;31212;49.734;8.490;2023-06-10T08:48:16;3.97;;;3.35;;
45466;SDS011;31212;49.734;8.490;2023-06-10T08:50:45;5.57;;;3.97;;
45466;SDS011;31212;49.734;8.490;2023-06-10T08:53:13;8.18;;;3.42;;
45466;SDS011;31212;49.734;8.490;2023-06-10T08:55:44;7.32;;;3.85;;
45466;SDS011;31212;49.734;8.490;2023-06-10T08:58:16;5.90;;;4.00;;
45466;SDS011;31212;49.734;8.490;2023-06-10T09:00:43;6.40;;;4.43;;
45466;SDS011;31212;49.734;8.490;2023-06-10T09:03:10;3.88;;;3.25;;
45466;SDS011;31212;49.734;8.490;2023-06-10T09:05:38;4.25;;;3.60;;
45466;SDS011;31212;49.734;8.490;2023-06-10T09:08:05;5.13;;;3.40;;
45466;SDS011;31212;49.734;8.490;2023-06-10T09:10:32;4.10;;;3.53;;
45466;SDS011;31212;49.734;8.490;2023-06-10T09:12:59;5.28;;;4.07;;
45466;SDS011;31212;49.734;8.490;2023-06-10T09:15:25;6.90;;;4.45;;
45466;SDS011;31212;49.734;8.490;2023-06-10T09:17:52;6.05;;;4.35;;
45466;SDS011;31212;49.734;8.490;2023-06-10T09:20:19;8.23;;;4.05;;
45466;SDS011;31212;49.734;8.490;2023-06-10T09:22:47;6.72;;;4.10;;
45466;SDS011;31212;49.734;8.490;2023-06-10T09:25:14;5.35;;;4.13;;
45466;SDS011;31212;49.734;8.490;2023-06-10T09:27:46;5.20;;;4.47;;
45466;SDS011;31212;49.734;8.490;2023-06-10T09:30:25;7.28;;;4.32;;
45466;SDS011;31212;49.734;8.490;2023-06-10T09:32:52;6.93;;;4.18;;
45466;SDS011;31212;49.734;8.490;2023-06-10T09:35:21;5.95;;;4.07;;
45466;SDS011;31212;49.734;8.490;2023-06-10T09:37:49;5.95;;;4.25;;
45466;SDS011;31212;49.734;8.490;2023-06-10T09:40:17;5.18;;;3.85;;
45466;SDS011;31212;49.734;8.490;2023-06-10T09:42:43;5.80;;;4.63;;
45466;SDS011;31212;49.734;8.490;2023-06-10T09:45:10;8.20;;;4.30;;
45466;SDS011;31212;49.734;8.490;2023-06-10T09:47:36;5.65;;;4.35;;
45466;SDS011;31212;49.734;8.490;2023-06-10T09:50:03;5.00;;;4.20;;
45466;SDS011;31212;49.734;8.490;2023-06-10T09:52:30;5.13;;;4.20;;
45466;SDS011;31212;49.734;8.490;2023-06-10T09:55:00;4.55;;;3.78;;
45466;SDS011;31212;49.734;8.490;2023-06-10T09:57:30;4.57;;;3.88;;
45466;SDS011;31212;49.734;8.490;2023-06-10T09:59:57;6.40;;;4.18;;
45466;SDS011;31212;49.734;8.490;2023-06-10T10:02:24;5.55;;;3.80;;
45466;SDS011;31212;49.734;8.490;2023-06-10T10:04:50;6.20;;;4.22;;
45466;SDS011;31212;49.734;8.490;2023-06-10T10:07:16;4.75;;;4.05;;
45466;SDS011;31212;49.734;8.490;2023-06-10T10:09:43;3.40;;;3.10;;
45466;SDS011;31212;49.734;8.490;2023-06-10T10:12:12;4.90;;;3.90;;
45466;SDS011;31212;49.734;8.490;2023-06-10T10:14:43;3.92;;;3.15;;
45466;SDS011;31212;49.734;8.490;2023-06-10T10:17:12;4.82;;;3.65;;
45466;SDS011;31212;49.734;8.490;2023-06-10T10:19:43;4.05;;;3.63;;
45466;SDS011;31212;49.734;8.490;2023-06-10T10:22:15;3.50;;;3.20;;
45466;SDS011;31212;49.734;8.490;2023-06-10T10:24:46;5.18;;;3.40;;
45466;SDS011;31212;49.734;8.490;2023-06-10T10:27:19;5.20;;;3.50;;
45466;SDS011;31212;49.734;8.490;2023-06-10T10:29:52;5.55;;;3.70;;
45466;SDS011;31212;49.734;8.490;2023-06-10T10:32:21;5.60;;;3.53;;
45466;SDS011;31212;49.734;8.490;2023-06-10T10:34:56;3.75;;;3.10;;
45466;SDS011;31212;49.734;8.490;2023-06-10T10:37:33;3.92;;;3.45;;
45466;SDS011;31212;49.734;8.490;2023-06-10T10:40:00;5.13;;;3.67;;
45466;SDS011;31212;49.734;8.490;2023-06-10T10:42:29;6.97;;;4.22;;
45466;SDS011;31212;49.734;8.490;2023-06-10T10:44:57;3.88;;;3.17;;
45466;SDS011;31212;49.734;8.490;2023-06-10T10:47:25;4.47;;;3.25;;
45466;SDS011;31212;49.734;8.490;2023-06-10T10:49:54;6.30;;;3.17;;
45466;SDS011;31212;49.734;8.490;2023-06-10T10:52:24;4.20;;;3.10;;
45466;SDS011;31212;49.734;8.490;2023-06-10T10:54:50;3.85;;;3.45;;
45466;SDS011;31212;49.734;8.490;2023-06-10T10:57:20;6.97;;;3.88;;
45466;SDS011;31212;49.734;8.490;2023-06-10T10:59:53;4.72;;;3.75;;
45466;SDS011;31212;49.734;8.490;2023-06-10T11:02:36;4.88;;;3.58;;
45466;SDS011;31212;49.734;8.490;2023-06-10T11:05:08;3.90;;;3.50;;
45466;SDS011;31212;49.734;8.490;2023-06-10T11:07:36;4.82;;;3.25;;
45466;SDS011;31212;49.734;8.490;2023-06-10T11:10:03;4.88;;;3.50;;
45466;SDS011;31212;49.734;8.490;2023-06-10T11:12:40;4.97;;;3.40;;
45466;SDS011;31212;49.734;8.490;2023-06-10T11:15:09;5.22;;;3.33;;
45466;SDS011;31212;49.734;8.490;2023-06-10T11:17:36;3.30;;;3.00;;
45466;SDS011;31212;49.734;8.490;2023-06-10T11:20:03;4.30;;;3.38;;
45466;SDS011;31212;49.734;8.490;2023-06-10T11:22:30;4.65;;;3.40;;
45466;SDS011;31212;49.734;8.490;2023-06-10T11:24:57;3.85;;;2.85;;
45466;SDS011;31212;49.734;8.490;2023-06-10T11:27:24;3.83;;;3.17;;
45466;SDS011;31212;49.734;8.490;2023-06-10T11:29:57;3.67;;;3.03;;
45466;SDS011;31212;49.734;8.490;2023-06-10T11:32:28;4.80;;;3.00;;
45466;SDS011;31212;49.734;8.490;2023-06-10T11:34:56;3.15;;;2.58;;
45466;SDS011;31212;49.734;8.490;2023-06-10T11:37:23;3.60;;;2.97;;
45466;SDS011;31212;49.734;8.490;2023-06-10T11:39:51;3.55;;;2.70;;
45466;SDS011;31212;49.734;8.490;2023-06-10T11:42:18;3.85;;;2.83;;
45466;SDS011;31212;49.734;8.490;2023-06-10T11:44:48;6.32;;;2.80;;
45466;SDS011;31212;49.734;8.490;2023-06-10T11:47:29;3.08;;;2.45;;
45466;SDS011;31212;49.734;8.490;2023-06-10T11:49:55;4.18;;;3.00;;
45466;SDS011;31212;49.734;8.490;2023-06-10T11:52:25;5.57;;;2.88;;
45466;SDS011;31212;49.734;8.490;2023-06-10T11:54:53;3.67;;;2.58;;
45466;SDS011;31212;49.734;8.490;2023-06-10T11:57:20;6.75;;;2.80;;
45466;SDS011;31212;49.734;8.490;2023-06-10T11:59:46;3.97;;;2.80;;
45466;SDS011;31212;49.734;8.490;2023-06-10T12:02:14;3.38;;;2.78;;
45466;SDS011;31212;49.734;8.490;2023-06-10T12:04:42;3.40;;;2.10;;
45466;SDS011;31212;49.734;8.490;2023-06-10T12:07:09;3.38;;;2.85;;
45466;SDS011;31212;49.734;8.490;2023-06-10T12:09:43;3.55;;;2.53;;
45466;SDS011;31212;49.734;8.490;2023-06-10T12:12:09;2.80;;;2.47;;
45466;SDS011;31212;49.734;8.490;2023-06-10T12:14:49;3.58;;;2.90;;
45466;SDS011;31212;49.734;8.490;2023-06-10T12:17:18;3.30;;;2.63;;
45466;SDS011;31212;49.734;8.490;2023-06-10T12:19:47;3.40;;;2.80;;
45466;SDS011;31212;49.734;8.490;2023-06-10T12:22:14;3.88;;;2.35;;
45466;SDS011;31212;49.734;8.490;2023-06-10T12:24:44;4.05;;;2.70;;
45466;SDS011;31212;49.734;8.490;2023-06-10T12:27:11;2.78;;;2.42;;
45466;SDS011;31212;49.734;8.490;2023-06-10T12:29:38;5.10;;;2.40;;
45466;SDS011;31212;49.734;8.490;2023-06-10T12:32:04;4.63;;;2.53;;
45466;SDS011;31212;49.734;8.490;2023-06-10T12:34:33;5.13;;;3.22;;
45466;SDS011;31212;49.734;8.490;2023-06-10T12:37:03;3.33;;;2.90;;
45466;SDS011;31212;49.734;8.490;2023-06-10T12:39:30;5.28;;;2.88;;
45466;SDS011;31212;49.734;8.490;2023-06-10T12:41:57;4.65;;;2.53;;
45466;SDS011;31212;49.734;8.490;2023-06-10T12:44:28;4.53;;;2.60;;
45466;SDS011;31212;49.734;8.490;2023-06-10T12:46:55;3.58;;;2.70;;
45466;SDS011;31212;49.734;8.490;2023-06-10T12:49:22;4.50;;;2.55;;
45466;SDS011;31212;49.734;8.490;2023-06-10T12:51:50;3.75;;;2.58;;
45466;SDS011;31212;49.734;8.490;2023-06-10T12:54:18;3.22;;;2.58;;
45466;SDS011;31212;49.734;8.490;2023-06-10T12:56:44;4.35;;;2.58;;
45466;SDS011;31212;49.734;8.490;2023-06-10T12:59:10;6.32;;;3.60;;
45466;SDS011;31212;49.734;8.490;2023-06-10T13:01:37;5.45;;;2.63;;
45466;SDS011;31212;49.734;8.490;2023-06-10T13:04:04;4.68;;;2.60;;
45466;SDS011;31212;49.734;8.490;2023-06-10T13:06:31;3.42;;;2.70;;
45466;SDS011;31212;49.734;8.490;2023-06-10T13:09:01;5.68;;;2.55;;
45466;SDS011;31212;49.734;8.490;2023-06-10T13:11:29;4.95;;;2.40;;
45466;SDS011;31212;49.734;8.490;2023-06-10T13:13:55;3.20;;;2.63;;
45466;SDS011;31212;49.734;8.490;2023-06-10T13:16:22;3.40;;;2.60;;
45466;SDS011;31212;49.734;8.490;2023-06-10T13:18:48;3.88;;;2.70;;
45466;SDS011;31212;49.734;8.490;2023-06-10T13:21:14;3.58;;;2.95;;
45466;SDS011;31212;49.734;8.490;2023-06-10T13:23:43;3.45;;;2.65;;
45466;SDS011;31212;49.734;8.490;2023-06-10T13:26:11;2.88;;;2.50;;
45466;SDS011;31212;49.734;8.490;2023-06-10T13:28:38;3.72;;;2.67;;
45466;SDS011;31212;49.734;8.490;2023-06-10T13:31:05;3.92;;;3.25;;
45466;SDS011;31212;49.734;8.490;2023-06-10T13:33:32;5.60;;;3.40;;
45466;SDS011;31212;49.734;8.490;2023-06-10T13:35:58;3.70;;;2.72;;
45466;SDS011;31212;49.734;8.490;2023-06-10T13:38:25;3.53;;;2.55;;
45466;SDS011;31212;49.734;8.490;2023-06-10T13:40:51;2.97;;;2.53;;
45466;SDS011;31212;49.734;8.490;2023-06-10T13:43:18;7.45;;;3.03;;
45466;SDS011;31212;49.734;8.490;2023-06-10T13:45:45;2.70;;;2.30;;
45466;SDS011;31212;49.734;8.490;2023-06-10T13:48:12;3.65;;;2.92;;
45466;SDS011;31212;49.734;8.490;2023-06-10T13:50:39;3.97;;;2.80;;
45466;SDS011;31212;49.734;8.490;2023-06-10T13:53:05;3.65;;;2.70;;
45466;SDS011;31212;49.734;8.490;2023-06-10T13:55:31;6.15;;;2.60;;
45466;SDS011;31212;49.734;8.490;2023-06-10T13:57:58;5.43;;;3.17;;
45466;SDS011;31212;49.734;8.490;2023-06-10T14:00:24;6.57;;;3.65;;
45466;SDS011;31212;49.734;8.490;2023-06-10T14:02:53;3.83;;;2.70;;
45466;SDS011;31212;49.734;8.490;2023-06-10T14:05:20;3.05;;;2.72;;
45466;SDS011;31212;49.734;8.490;2023-06-10T14:07:46;3.90;;;2.92;;
45466;SDS011;31212;49.734;8.490;2023-06-10T14:10:13;3.58;;;2.53;;
45466;SDS011;31212;49.734;8.490;2023-06-10T14:12:39;3.75;;;3.03;;
45466;SDS011;31212;49.734;8.490;2023-06-10T14:15:07;5.35;;;3.28;;
45466;SDS011;31212;49.734;8.490;2023-06-10T14:17:34;3.90;;;3.08;;
45466;SDS011;31212;49.734;8.490;2023-06-10T14:20:02;5.40;;;3.20;;
45466;SDS011;31212;49.734;8.490;2023-06-10T14:22:29;3.63;;;3.03;;
45466;SDS011;31212;49.734;8.490;2023-06-10T14:24:55;3.65;;;2.92;;
45466;SDS011;31212;49.734;8.490;2023-06-10T14:27:22;3.78;;;2.35;;
45466;SDS011;31212;49.734;8.490;2023-06-10T14:29:48;5.38;;;2.80;;
45466;SDS011;31212;49.734;8.490;2023-06-10T14:32:15;5.25;;;3.17;;
45466;SDS011;31212;49.734;8.490;2023-06-10T14:34:41;5.50;;;4.18;;
45466;SDS011;31212;49.734;8.490;2023-06-10T14:37:10;8.57;;;4.30;;
45466;SDS011;31212;49.734;8.490;2023-06-10T14:39:37;5.05;;;3.53;;
45466;SDS011;31212;49.734;8.490;2023-06-10T14:42:04;5.30;;;3.20;;
45466;SDS011;31212;49.734;8.490;2023-06-10T14:44:31;4.50;;;3.05;;
45466;SDS011;31212;49.734;8.490;2023-06-10T14:46:57;3.33;;;2.55;;
45466;SDS011;31212;49.734;8.490;2023-06-10T14:49:24;3.05;;;2.67;;